sensor_id;sensor_type;location;lat;lon;timestamp;temperature;humidity
26964;DHT22;14521;48.148;-1.656;2023-02-28T00:02:44;18.00;67.00
26964;DHT22;14521;48.148;-1.656;2023-02-28T00:06:07;18.00;67.00
26964;DHT22;14521;48.148;-1.656;2023-02-28T00:09:31;18.00;67.00
26964;DHT22;14521;48.148;-1.656;2023-02-28T00:12:55;18.00;67.00
26964;DHT22;14521;48.148;-1.656;2023-02-28T00:16:21;18.00;67.00
26964;DHT22;14521;48.148;-1.656;2023-02-28T00:19:44;18.00;67.00
26964;DHT22;14521;48.148;-1.656;2023-02-28T00:23:07;18.00;67.00
26964;DHT22;14521;48.148;-1.656;2023-02-28T00:26:30;18.00;67.00
26964;DHT22;14521;48.148;-1.656;2023-02-28T00:29:52;18.00;66.90
26964;DHT22;14521;48.148;-1.656;2023-02-28T00:33:16;18.00;67.00
26964;DHT22;14521;48.148;-1.656;2023-02-28T00:36:38;17.90;67.00
26964;DHT22;14521;48.148;-1.656;2023-02-28T00:40:00;17.90;67.60
26964;DHT22;14521;48.148;-1.656;2023-02-28T00:43:23;17.90;66.80
26964;DHT22;14521;48.148;-1.656;2023-02-28T00:46:45;17.90;66.80
26964;DHT22;14521;48.148;-1.656;2023-02-28T00:50:09;17.90;66.80
26964;DHT22;14521;48.148;-1.656;2023-02-28T00:53:31;17.90;66.80
26964;DHT22;14521;48.148;-1.656;2023-02-28T00:56:54;17.90;66.90
26964;DHT22;14521;48.148;-1.656;2023-02-28T01:00:17;17.90;66.80
26964;DHT22;14521;48.148;-1.656;2023-02-28T01:03:39;17.90;66.70
26964;DHT22;14521;48.148;-1.656;2023-02-28T01:07:02;17.90;66.80
26964;DHT22;14521;48.148;-1.656;2023-02-28T01:10:25;17.90;66.80
26964;DHT22;14521;48.148;-1.656;2023-02-28T01:13:49;17.90;66.70
26964;DHT22;14521;48.148;-1.656;2023-02-28T01:17:12;17.90;66.70
26964;DHT22;14521;48.148;-1.656;2023-02-28T01:20:37;17.90;66.70
26964;DHT22;14521;48.148;-1.656;2023-02-28T01:23:59;17.80;66.50
26964;DHT22;14521;48.148;-1.656;2023-02-28T01:27:21;17.90;66.60
26964;DHT22;14521;48.148;-1.656;2023-02-28T01:30:48;17.90;66.60
26964;DHT22;14521;48.148;-1.656;2023-02-28T01:34:10;17.90;66.60
26964;DHT22;14521;48.148;-1.656;2023-02-28T01:37:32;17.90;66.70
26964;DHT22;14521;48.148;-1.656;2023-02-28T01:40:55;17.90;66.60
26964;DHT22;14521;48.148;-1.656;2023-02-28T01:44:56;17.80;66.50
26964;DHT22;14521;48.148;-1.656;2023-02-28T01:48:23;17.80;66.50
26964;DHT22;14521;48.148;-1.656;2023-02-28T01:51:53;17.80;66.40
26964;DHT22;14521;48.148;-1.656;2023-02-28T01:55:19;17.80;66.50
26964;DHT22;14521;48.148;-1.656;2023-02-28T01:58:43;17.80;66.50
26964;DHT22;14521;48.148;-1.656;2023-02-28T02:02:05;17.80;66.50
26964;DHT22;14521;48.148;-1.656;2023-02-28T02:05:29;17.80;66.50
26964;DHT22;14521;48.148;-1.656;2023-02-28T02:08:53;17.80;66.50
26964;DHT22;14521;48.148;-1.656;2023-02-28T02:20:27;17.80;66.40
26964;DHT22;14521;48.148;-1.656;2023-02-28T02:39:23;17.70;66.40
26964;DHT22;14521;48.148;-1.656;2023-02-28T02:42:55;17.70;66.40
26964;DHT22;14521;48.148;-1.656;2023-02-28T02:46:26;17.70;66.30
26964;DHT22;14521;48.148;-1.656;2023-02-28T02:49:52;17.70;66.40
26964;DHT22;14521;48.148;-1.656;2023-02-28T02:53:23;17.70;66.40
26964;DHT22;14521;48.148;-1.656;2023-02-28T02:56:48;17.70;66.30
26964;DHT22;14521;48.148;-1.656;2023-02-28T03:00:12;17.70;66.30
26964;DHT22;14521;48.148;-1.656;2023-02-28T03:03:36;17.70;66.30
26964;DHT22;14521;48.148;-1.656;2023-02-28T03:06:59;17.70;66.30
26964;DHT22;14521;48.148;-1.656;2023-02-28T03:10:36;17.70;66.30
26964;DHT22;14521;48.148;-1.656;2023-02-28T03:17:48;17.70;66.20
26964;DHT22;14521;48.148;-1.656;2023-02-28T03:25:06;17.60;66.10
26964;DHT22;14521;48.148;-1.656;2023-02-28T03:29:06;17.70;66.10
26964;DHT22;14521;48.148;-1.656;2023-02-28T03:32:35;17.70;66.10
26964;DHT22;14521;48.148;-1.656;2023-02-28T03:36:07;17.60;66.00
26964;DHT22;14521;48.148;-1.656;2023-02-28T03:39:35;17.60;66.30
26964;DHT22;14521;48.148;-1.656;2023-02-28T03:43:07;17.60;66.30
26964;DHT22;14521;48.148;-1.656;2023-02-28T03:46:34;17.60;66.10
26964;DHT22;14521;48.148;-1.656;2023-02-28T03:50:07;17.60;66.10
26964;DHT22;14521;48.148;-1.656;2023-02-28T03:53:45;17.60;66.10
26964;DHT22;14521;48.148;-1.656;2023-02-28T04:00:55;17.60;66.20
26964;DHT22;14521;48.148;-1.656;2023-02-28T04:04:19;17.50;66.00
26964;DHT22;14521;48.148;-1.656;2023-02-28T04:07:41;17.50;66.10
26964;DHT22;14521;48.148;-1.656;2023-02-28T04:11:08;17.60;66.20
26964;DHT22;14521;48.148;-1.656;2023-02-28T04:14:37;17.60;66.20
26964;DHT22;14521;48.148;-1.656;2023-02-28T04:17:59;17.60;66.10
26964;DHT22;14521;48.148;-1.656;2023-02-28T04:21:21;17.50;66.10
26964;DHT22;14521;48.148;-1.656;2023-02-28T04:24:44;17.50;65.90
26964;DHT22;14521;48.148;-1.656;2023-02-28T04:28:07;17.50;66.10
26964;DHT22;14521;48.148;-1.656;2023-02-28T04:31:29;17.50;66.10
26964;DHT22;14521;48.148;-1.656;2023-02-28T04:34:52;17.50;66.00
26964;DHT22;14521;48.148;-1.656;2023-02-28T04:38:14;17.50;65.90
26964;DHT22;14521;48.148;-1.656;2023-02-28T04:41:37;17.50;66.80
26964;DHT22;14521;48.148;-1.656;2023-02-28T04:44:59;17.50;66.00
26964;DHT22;14521;48.148;-1.656;2023-02-28T04:48:27;17.50;65.80
26964;DHT22;14521;48.148;-1.656;2023-02-28T04:51:49;17.50;65.80
26964;DHT22;14521;48.148;-1.656;2023-02-28T04:55:11;17.50;65.90
26964;DHT22;14521;48.148;-1.656;2023-02-28T04:58:34;17.50;65.90
26964;DHT22;14521;48.148;-1.656;2023-02-28T05:01:57;17.50;66.00
26964;DHT22;14521;48.148;-1.656;2023-02-28T05:05:19;17.50;65.90
26964;DHT22;14521;48.148;-1.656;2023-02-28T05:08:42;17.50;65.80
26964;DHT22;14521;48.148;-1.656;2023-02-28T05:12:04;17.50;66.00
26964;DHT22;14521;48.148;-1.656;2023-02-28T05:15:26;17.50;66.00
26964;DHT22;14521;48.148;-1.656;2023-02-28T05:18:49;17.60;65.60
26964;DHT22;14521;48.148;-1.656;2023-02-28T05:22:15;17.70;65.40
26964;DHT22;14521;48.148;-1.656;2023-02-28T05:25:41;17.80;65.30
26964;DHT22;14521;48.148;-1.656;2023-02-28T05:29:03;17.90;65.00
26964;DHT22;14521;48.148;-1.656;2023-02-28T05:32:27;17.90;65.30
26964;DHT22;14521;48.148;-1.656;2023-02-28T05:35:49;18.00;65.30
26964;DHT22;14521;48.148;-1.656;2023-02-28T05:39:11;18.00;65.20
26964;DHT22;14521;48.148;-1.656;2023-02-28T05:42:35;18.00;65.00
26964;DHT22;14521;48.148;-1.656;2023-02-28T05:45:57;18.10;65.10
26964;DHT22;14521;48.148;-1.656;2023-02-28T05:49:20;18.10;65.10
26964;DHT22;14521;48.148;-1.656;2023-02-28T05:52:42;18.20;65.10
26964;DHT22;14521;48.148;-1.656;2023-02-28T05:56:04;18.20;64.80
26964;DHT22;14521;48.148;-1.656;2023-02-28T05:59:27;18.20;64.80
26964;DHT22;14521;48.148;-1.656;2023-02-28T06:02:49;18.30;64.80
26964;DHT22;14521;48.148;-1.656;2023-02-28T06:06:11;18.30;64.80
26964;DHT22;14521;48.148;-1.656;2023-02-28T06:09:34;18.40;64.70
26964;DHT22;14521;48.148;-1.656;2023-02-28T06:12:59;18.30;64.60
26964;DHT22;14521;48.148;-1.656;2023-02-28T06:16:23;18.40;64.50
26964;DHT22;14521;48.148;-1.656;2023-02-28T06:19:46;18.30;64.30
26964;DHT22;14521;48.148;-1.656;2023-02-28T06:23:09;18.30;64.30
26964;DHT22;14521;48.148;-1.656;2023-02-28T06:26:32;18.40;64.30
26964;DHT22;14521;48.148;-1.656;2023-02-28T06:29:55;18.30;64.30
26964;DHT22;14521;48.148;-1.656;2023-02-28T06:33:20;18.30;64.20
26964;DHT22;14521;48.148;-1.656;2023-02-28T06:36:43;18.30;64.30
26964;DHT22;14521;48.148;-1.656;2023-02-28T06:40:05;18.30;64.70
26964;DHT22;14521;48.148;-1.656;2023-02-28T06:43:30;18.30;65.30
26964;DHT22;14521;48.148;-1.656;2023-02-28T06:46:53;18.20;65.10
26964;DHT22;14521;48.148;-1.656;2023-02-28T06:50:16;18.30;66.90
26964;DHT22;14521;48.148;-1.656;2023-02-28T06:53:41;18.20;65.30
26964;DHT22;14521;48.148;-1.656;2023-02-28T06:57:03;18.20;65.80
26964;DHT22;14521;48.148;-1.656;2023-02-28T07:00:26;18.20;66.70
26964;DHT22;14521;48.148;-1.656;2023-02-28T07:03:49;18.30;66.90
26964;DHT22;14521;48.148;-1.656;2023-02-28T07:07:14;18.30;66.10
26964;DHT22;14521;48.148;-1.656;2023-02-28T07:10:39;18.40;66.50
26964;DHT22;14521;48.148;-1.656;2023-02-28T07:14:02;18.40;65.10
26964;DHT22;14521;48.148;-1.656;2023-02-28T07:17:25;18.40;65.30
26964;DHT22;14521;48.148;-1.656;2023-02-28T07:20:47;18.40;65.70
26964;DHT22;14521;48.148;-1.656;2023-02-28T07:24:09;18.50;66.10
26964;DHT22;14521;48.148;-1.656;2023-02-28T07:27:32;18.50;66.10
26964;DHT22;14521;48.148;-1.656;2023-02-28T07:30:56;18.50;65.50
26964;DHT22;14521;48.148;-1.656;2023-02-28T07:34:19;18.60;65.10
26964;DHT22;14521;48.148;-1.656;2023-02-28T07:37:42;18.60;65.60
26964;DHT22;14521;48.148;-1.656;2023-02-28T07:41:04;18.60;65.70
26964;DHT22;14521;48.148;-1.656;2023-02-28T07:44:27;18.60;65.70
26964;DHT22;14521;48.148;-1.656;2023-02-28T07:47:49;18.70;66.20
26964;DHT22;14521;48.148;-1.656;2023-02-28T07:51:11;18.70;66.40
26964;DHT22;14521;48.148;-1.656;2023-02-28T07:54:34;18.80;66.60
26964;DHT22;14521;48.148;-1.656;2023-02-28T07:57:57;18.80;66.30
26964;DHT22;14521;48.148;-1.656;2023-02-28T08:01:19;18.80;65.70
26964;DHT22;14521;48.148;-1.656;2023-02-28T08:04:42;18.80;65.70
26964;DHT22;14521;48.148;-1.656;2023-02-28T08:08:05;18.80;65.80
26964;DHT22;14521;48.148;-1.656;2023-02-28T08:11:27;18.80;66.20
26964;DHT22;14521;48.148;-1.656;2023-02-28T08:14:50;18.80;65.80
26964;DHT22;14521;48.148;-1.656;2023-02-28T08:18:12;18.80;65.30
26964;DHT22;14521;48.148;-1.656;2023-02-28T08:21:35;18.80;65.10
26964;DHT22;14521;48.148;-1.656;2023-02-28T08:24:57;18.80;65.10
26964;DHT22;14521;48.148;-1.656;2023-02-28T08:28:19;18.80;65.20
26964;DHT22;14521;48.148;-1.656;2023-02-28T08:31:42;18.80;64.80
26964;DHT22;14521;48.148;-1.656;2023-02-28T08:35:05;18.80;64.70
26964;DHT22;14521;48.148;-1.656;2023-02-28T08:38:27;18.90;65.20
26964;DHT22;14521;48.148;-1.656;2023-02-28T08:41:49;18.80;65.30
26964;DHT22;14521;48.148;-1.656;2023-02-28T08:45:27;18.90;66.60
26964;DHT22;14521;48.148;-1.656;2023-02-28T08:48:54;18.90;69.50
26964;DHT22;14521;48.148;-1.656;2023-02-28T08:52:16;19.10;67.80
26964;DHT22;14521;48.148;-1.656;2023-02-28T08:55:39;19.20;66.40
26964;DHT22;14521;48.148;-1.656;2023-02-28T08:59:01;19.50;65.90
26964;DHT22;14521;48.148;-1.656;2023-02-28T09:02:23;19.60;66.50
26964;DHT22;14521;48.148;-1.656;2023-02-28T09:05:56;20.70;64.40
26964;DHT22;14521;48.148;-1.656;2023-02-28T09:09:18;21.70;60.70
26964;DHT22;14521;48.148;-1.656;2023-02-28T09:12:41;22.20;59.80
26964;DHT22;14521;48.148;-1.656;2023-02-28T09:16:05;21.90;60.30
26964;DHT22;14521;48.148;-1.656;2023-02-28T09:19:28;20.40;65.90
26964;DHT22;14521;48.148;-1.656;2023-02-28T09:22:50;21.10;64.10
26964;DHT22;14521;48.148;-1.656;2023-02-28T09:26:25;21.60;62.00
26964;DHT22;14521;48.148;-1.656;2023-02-28T09:29:47;21.40;62.30
26964;DHT22;14521;48.148;-1.656;2023-02-28T09:33:09;21.10;62.30
26964;DHT22;14521;48.148;-1.656;2023-02-28T09:36:32;20.90;63.30
26964;DHT22;14521;48.148;-1.656;2023-02-28T09:40:06;20.60;63.60
26964;DHT22;14521;48.148;-1.656;2023-02-28T09:43:35;19.90;67.30
26964;DHT22;14521;48.148;-1.656;2023-02-28T09:50:49;19.30;67.70
26964;DHT22;14521;48.148;-1.656;2023-02-28T09:54:15;19.10;68.30
26964;DHT22;14521;48.148;-1.656;2023-02-28T09:57:41;19.00;68.30
26964;DHT22;14521;48.148;-1.656;2023-02-28T10:08:16;18.70;69.40
26964;DHT22;14521;48.148;-1.656;2023-02-28T10:11:40;18.50;69.40
26964;DHT22;14521;48.148;-1.656;2023-02-28T10:15:04;18.40;69.40
26964;DHT22;14521;48.148;-1.656;2023-02-28T10:18:33;18.60;69.60
26964;DHT22;14521;48.148;-1.656;2023-02-28T10:22:49;18.70;68.80
26964;DHT22;14521;48.148;-1.656;2023-02-28T10:25:59;18.70;68.80
26964;DHT22;14521;48.148;-1.656;2023-02-28T10:29:22;18.70;68.00
26964;DHT22;14521;48.148;-1.656;2023-02-28T10:32:53;18.70;68.00
26964;DHT22;14521;48.148;-1.656;2023-02-28T10:36:19;18.70;68.30
26964;DHT22;14521;48.148;-1.656;2023-02-28T10:39:45;18.70;68.30
26964;DHT22;14521;48.148;-1.656;2023-02-28T10:46:40;18.70;68.00
26964;DHT22;14521;48.148;-1.656;2023-02-28T10:50:02;18.70;68.40
26964;DHT22;14521;48.148;-1.656;2023-02-28T10:53:30;18.70;68.40
26964;DHT22;14521;48.148;-1.656;2023-02-28T10:57:20;18.70;68.60
26964;DHT22;14521;48.148;-1.656;2023-02-28T11:00:43;18.70;68.50
26964;DHT22;14521;48.148;-1.656;2023-02-28T11:07:55;18.60;68.60
26964;DHT22;14521;48.148;-1.656;2023-02-28T11:11:18;18.60;68.40
26964;DHT22;14521;48.148;-1.656;2023-02-28T11:14:53;18.60;68.00
26964;DHT22;14521;48.148;-1.656;2023-02-28T11:18:29;18.60;67.90
26964;DHT22;14521;48.148;-1.656;2023-02-28T11:21:56;18.60;67.30
26964;DHT22;14521;48.148;-1.656;2023-02-28T11:25:26;18.60;68.00
26964;DHT22;14521;48.148;-1.656;2023-02-28T11:29:03;18.50;68.00
26964;DHT22;14521;48.148;-1.656;2023-02-28T11:32:30;18.60;68.10
26964;DHT22;14521;48.148;-1.656;2023-02-28T11:35:58;18.60;67.50
26964;DHT22;14521;48.148;-1.656;2023-02-28T11:39:21;18.60;67.80
26964;DHT22;14521;48.148;-1.656;2023-02-28T11:43:04;18.60;67.40
26964;DHT22;14521;48.148;-1.656;2023-02-28T11:46:40;18.50;67.30
26964;DHT22;14521;48.148;-1.656;2023-02-28T12:05:02;18.50;67.00
26964;DHT22;14521;48.148;-1.656;2023-02-28T12:12:35;18.60;65.90
26964;DHT22;14521;48.148;-1.656;2023-02-28T12:20:05;18.60;67.50
26964;DHT22;14521;48.148;-1.656;2023-02-28T12:24:12;18.50;67.00
26964;DHT22;14521;48.148;-1.656;2023-02-28T12:27:41;18.50;66.40
26964;DHT22;14521;48.148;-1.656;2023-02-28T12:34:41;18.60;66.70
26964;DHT22;14521;48.148;-1.656;2023-02-28T12:38:12;18.50;66.50
26964;DHT22;14521;48.148;-1.656;2023-02-28T12:45:20;18.60;67.20
26964;DHT22;14521;48.148;-1.656;2023-02-28T12:48:47;18.60;67.50
26964;DHT22;14521;48.148;-1.656;2023-02-28T12:52:11;18.60;67.70
26964;DHT22;14521;48.148;-1.656;2023-02-28T12:56:01;18.60;67.50
26964;DHT22;14521;48.148;-1.656;2023-02-28T12:59:40;18.60;67.00
26964;DHT22;14521;48.148;-1.656;2023-02-28T13:03:58;18.60;66.50
26964;DHT22;14521;48.148;-1.656;2023-02-28T13:11:00;18.60;65.90
26964;DHT22;14521;48.148;-1.656;2023-02-28T13:17:54;18.60;66.70
26964;DHT22;14521;48.148;-1.656;2023-02-28T13:21:29;18.60;66.80
26964;DHT22;14521;48.148;-1.656;2023-02-28T13:24:57;18.60;66.70
26964;DHT22;14521;48.148;-1.656;2023-02-28T13:32:29;18.60;66.20
26964;DHT22;14521;48.148;-1.656;2023-02-28T13:36:08;18.60;67.30
26964;DHT22;14521;48.148;-1.656;2023-02-28T13:42:57;18.50;66.40
26964;DHT22;14521;48.148;-1.656;2023-02-28T13:46:19;18.60;66.50
26964;DHT22;14521;48.148;-1.656;2023-02-28T13:49:42;18.50;65.90
26964;DHT22;14521;48.148;-1.656;2023-02-28T13:56:45;18.50;65.90
26964;DHT22;14521;48.148;-1.656;2023-02-28T14:07:32;18.40;65.80
26964;DHT22;14521;48.148;-1.656;2023-02-28T14:11:15;18.40;65.90
26964;DHT22;14521;48.148;-1.656;2023-02-28T14:36:37;18.40;65.20
26964;DHT22;14521;48.148;-1.656;2023-02-28T14:40:02;18.30;65.20
26964;DHT22;14521;48.148;-1.656;2023-02-28T14:43:28;18.30;65.10
26964;DHT22;14521;48.148;-1.656;2023-02-28T14:46:53;18.40;65.10
26964;DHT22;14521;48.148;-1.656;2023-02-28T14:50:27;18.30;65.10
26964;DHT22;14521;48.148;-1.656;2023-02-28T14:53:57;18.30;64.80
26964;DHT22;14521;48.148;-1.656;2023-02-28T14:57:23;18.30;65.00
26964;DHT22;14521;48.148;-1.656;2023-02-28T15:00:51;18.30;65.00
26964;DHT22;14521;48.148;-1.656;2023-02-28T15:04:26;18.30;64.80
26964;DHT22;14521;48.148;-1.656;2023-02-28T15:08:24;18.30;64.90
26964;DHT22;14521;48.148;-1.656;2023-02-28T15:11:49;18.30;64.80
26964;DHT22;14521;48.148;-1.656;2023-02-28T15:15:16;18.30;64.80
26964;DHT22;14521;48.148;-1.656;2023-02-28T15:22:16;18.20;64.90
26964;DHT22;14521;48.148;-1.656;2023-02-28T15:25:40;18.20;65.00
26964;DHT22;14521;48.148;-1.656;2023-02-28T15:29:11;18.20;65.10
26964;DHT22;14521;48.148;-1.656;2023-02-28T15:32:36;18.20;65.30
26964;DHT22;14521;48.148;-1.656;2023-02-28T15:36:28;18.20;64.60
26964;DHT22;14521;48.148;-1.656;2023-02-28T15:39:53;18.20;64.90
26964;DHT22;14521;48.148;-1.656;2023-02-28T15:43:17;18.20;65.10
26964;DHT22;14521;48.148;-1.656;2023-02-28T15:46:43;18.20;65.10
26964;DHT22;14521;48.148;-1.656;2023-02-28T15:50:12;18.20;65.10
26964;DHT22;14521;48.148;-1.656;2023-02-28T15:53:41;18.20;64.90
26964;DHT22;14521;48.148;-1.656;2023-02-28T15:57:11;18.20;65.10
26964;DHT22;14521;48.148;-1.656;2023-02-28T16:00:35;18.20;65.10
26964;DHT22;14521;48.148;-1.656;2023-02-28T16:04:21;18.20;65.10
26964;DHT22;14521;48.148;-1.656;2023-02-28T16:07:43;18.20;64.90
26964;DHT22;14521;48.148;-1.656;2023-02-28T16:11:09;18.20;64.90
26964;DHT22;14521;48.148;-1.656;2023-02-28T16:14:32;18.10;65.20
26964;DHT22;14521;48.148;-1.656;2023-02-28T16:17:55;18.10;65.30
26964;DHT22;14521;48.148;-1.656;2023-02-28T16:21:18;18.10;65.30
26964;DHT22;14521;48.148;-1.656;2023-02-28T16:24:40;18.10;65.30
26964;DHT22;14521;48.148;-1.656;2023-02-28T16:28:04;18.10;65.30
26964;DHT22;14521;48.148;-1.656;2023-02-28T16:31:29;18.10;65.30
26964;DHT22;14521;48.148;-1.656;2023-02-28T16:34:52;18.10;65.30
26964;DHT22;14521;48.148;-1.656;2023-02-28T16:38:14;18.10;66.10
26964;DHT22;14521;48.148;-1.656;2023-02-28T16:41:37;18.10;66.60
26964;DHT22;14521;48.148;-1.656;2023-02-28T16:44:59;18.10;66.10
26964;DHT22;14521;48.148;-1.656;2023-02-28T16:48:21;18.10;66.10
26964;DHT22;14521;48.148;-1.656;2023-02-28T16:51:44;18.00;66.30
26964;DHT22;14521;48.148;-1.656;2023-02-28T16:55:06;18.00;66.50
26964;DHT22;14521;48.148;-1.656;2023-02-28T16:58:29;18.00;66.70
26964;DHT22;14521;48.148;-1.656;2023-02-28T17:01:52;18.00;66.70
26964;DHT22;14521;48.148;-1.656;2023-02-28T17:05:14;18.00;66.70
26964;DHT22;14521;48.148;-1.656;2023-02-28T17:08:37;18.00;67.00
26964;DHT22;14521;48.148;-1.656;2023-02-28T17:11:59;18.00;66.90
26964;DHT22;14521;48.148;-1.656;2023-02-28T17:15:21;18.00;67.00
26964;DHT22;14521;48.148;-1.656;2023-02-28T17:18:44;18.00;66.80
26964;DHT22;14521;48.148;-1.656;2023-02-28T17:22:08;18.00;66.90
26964;DHT22;14521;48.148;-1.656;2023-02-28T17:25:30;18.10;67.10
26964;DHT22;14521;48.148;-1.656;2023-02-28T17:28:53;18.00;67.00
26964;DHT22;14521;48.148;-1.656;2023-02-28T17:32:17;18.00;67.00
26964;DHT22;14521;48.148;-1.656;2023-02-28T17:35:40;18.00;67.20
26964;DHT22;14521;48.148;-1.656;2023-02-28T17:39:03;18.00;67.20
26964;DHT22;14521;48.148;-1.656;2023-02-28T17:42:27;18.00;67.00
26964;DHT22;14521;48.148;-1.656;2023-02-28T17:45:49;18.00;67.10
26964;DHT22;14521;48.148;-1.656;2023-02-28T17:49:12;18.00;66.90
26964;DHT22;14521;48.148;-1.656;2023-02-28T17:52:34;18.00;67.70
26964;DHT22;14521;48.148;-1.656;2023-02-28T17:55:58;18.00;67.50
26964;DHT22;14521;48.148;-1.656;2023-02-28T17:59:20;18.10;67.60
26964;DHT22;14521;48.148;-1.656;2023-02-28T18:02:43;18.20;67.50
26964;DHT22;14521;48.148;-1.656;2023-02-28T18:06:06;18.20;67.50
26964;DHT22;14521;48.148;-1.656;2023-02-28T18:09:29;18.30;67.70
26964;DHT22;14521;48.148;-1.656;2023-02-28T18:12:52;18.40;67.80
26964;DHT22;14521;48.148;-1.656;2023-02-28T18:16:14;18.40;67.80
26964;DHT22;14521;48.148;-1.656;2023-02-28T18:19:37;18.50;67.90
26964;DHT22;14521;48.148;-1.656;2023-02-28T18:23:00;18.50;66.70
26964;DHT22;14521;48.148;-1.656;2023-02-28T18:26:22;18.50;66.60
26964;DHT22;14521;48.148;-1.656;2023-02-28T18:29:45;18.60;66.70
26964;DHT22;14521;48.148;-1.656;2023-02-28T18:33:07;18.70;66.50
26964;DHT22;14521;48.148;-1.656;2023-02-28T18:36:29;18.80;66.70
26964;DHT22;14521;48.148;-1.656;2023-02-28T18:39:52;18.90;67.60
26964;DHT22;14521;48.148;-1.656;2023-02-28T18:43:15;19.00;70.70
26964;DHT22;14521;48.148;-1.656;2023-02-28T18:46:37;19.00;74.80
26964;DHT22;14521;48.148;-1.656;2023-02-28T18:49:59;19.00;72.30
26964;DHT22;14521;48.148;-1.656;2023-02-28T18:53:23;19.00;73.00
26964;DHT22;14521;48.148;-1.656;2023-02-28T18:56:45;19.00;71.10
26964;DHT22;14521;48.148;-1.656;2023-02-28T19:00:08;19.00;69.90
26964;DHT22;14521;48.148;-1.656;2023-02-28T19:03:31;19.00;71.50
26964;DHT22;14521;48.148;-1.656;2023-02-28T19:06:53;19.00;71.50
26964;DHT22;14521;48.148;-1.656;2023-02-28T19:10:15;19.00;71.50
26964;DHT22;14521;48.148;-1.656;2023-02-28T19:13:38;19.00;71.10
26964;DHT22;14521;48.148;-1.656;2023-02-28T19:17:01;19.00;71.00
26964;DHT22;14521;48.148;-1.656;2023-02-28T19:20:23;19.00;70.80
26964;DHT22;14521;48.148;-1.656;2023-02-28T19:23:45;19.00;69.20
26964;DHT22;14521;48.148;-1.656;2023-02-28T19:27:08;19.00;69.70
26964;DHT22;14521;48.148;-1.656;2023-02-28T19:30:30;19.10;69.80
26964;DHT22;14521;48.148;-1.656;2023-02-28T19:33:52;19.10;69.30
26964;DHT22;14521;48.148;-1.656;2023-02-28T19:37:15;19.00;69.20
26964;DHT22;14521;48.148;-1.656;2023-02-28T19:40:37;19.00;70.00
26964;DHT22;14521;48.148;-1.656;2023-02-28T19:44:00;19.00;70.20
26964;DHT22;14521;48.148;-1.656;2023-02-28T19:47:22;19.00;70.10
26964;DHT22;14521;48.148;-1.656;2023-02-28T19:50:45;18.90;70.30
26964;DHT22;14521;48.148;-1.656;2023-02-28T19:54:07;18.90;70.30
26964;DHT22;14521;48.148;-1.656;2023-02-28T19:57:29;18.90;70.30
26964;DHT22;14521;48.148;-1.656;2023-02-28T20:00:51;18.90;70.10
26964;DHT22;14521;48.148;-1.656;2023-02-28T20:04:14;18.90;70.30
26964;DHT22;14521;48.148;-1.656;2023-02-28T20:07:36;18.90;70.30
26964;DHT22;14521;48.148;-1.656;2023-02-28T20:11:06;18.90;70.20
26964;DHT22;14521;48.148;-1.656;2023-02-28T20:14:29;18.80;70.10
26964;DHT22;14521;48.148;-1.656;2023-02-28T20:17:51;18.80;70.20
26964;DHT22;14521;48.148;-1.656;2023-02-28T20:21:14;18.80;70.50
26964;DHT22;14521;48.148;-1.656;2023-02-28T20:24:37;18.80;71.00
26964;DHT22;14521;48.148;-1.656;2023-02-28T20:27:59;18.70;70.70
26964;DHT22;14521;48.148;-1.656;2023-02-28T20:31:23;18.80;70.50
26964;DHT22;14521;48.148;-1.656;2023-02-28T20:34:46;18.80;70.00
26964;DHT22;14521;48.148;-1.656;2023-02-28T20:38:09;18.80;69.60
26964;DHT22;14521;48.148;-1.656;2023-02-28T20:41:32;18.80;69.00
26964;DHT22;14521;48.148;-1.656;2023-02-28T20:44:54;18.70;68.10
26964;DHT22;14521;48.148;-1.656;2023-02-28T20:48:16;18.80;70.20
26964;DHT22;14521;48.148;-1.656;2023-02-28T20:51:39;18.70;69.70
26964;DHT22;14521;48.148;-1.656;2023-02-28T20:55:03;18.80;71.40
26964;DHT22;14521;48.148;-1.656;2023-02-28T20:58:29;18.80;71.80
26964;DHT22;14521;48.148;-1.656;2023-02-28T21:01:51;18.80;72.40
26964;DHT22;14521;48.148;-1.656;2023-02-28T21:05:14;18.80;73.50
26964;DHT22;14521;48.148;-1.656;2023-02-28T21:08:37;18.70;72.80
26964;DHT22;14521;48.148;-1.656;2023-02-28T21:11:59;18.70;68.50
26964;DHT22;14521;48.148;-1.656;2023-02-28T21:15:22;18.60;72.00
26964;DHT22;14521;48.148;-1.656;2023-02-28T21:18:44;18.60;72.40
26964;DHT22;14521;48.148;-1.656;2023-02-28T21:22:07;18.60;72.90
26964;DHT22;14521;48.148;-1.656;2023-02-28T21:25:29;18.50;72.40
26964;DHT22;14521;48.148;-1.656;2023-02-28T21:28:54;18.50;72.90
26964;DHT22;14521;48.148;-1.656;2023-02-28T21:32:16;18.50;72.40
26964;DHT22;14521;48.148;-1.656;2023-02-28T21:35:39;18.50;72.30
26964;DHT22;14521;48.148;-1.656;2023-02-28T21:39:08;18.50;72.30
26964;DHT22;14521;48.148;-1.656;2023-02-28T21:42:30;18.50;71.70
26964;DHT22;14521;48.148;-1.656;2023-02-28T21:45:53;18.50;71.30
26964;DHT22;14521;48.148;-1.656;2023-02-28T21:49:15;18.50;71.60
26964;DHT22;14521;48.148;-1.656;2023-02-28T21:52:37;18.40;71.40
26964;DHT22;14521;48.148;-1.656;2023-02-28T21:56:01;18.40;71.10
26964;DHT22;14521;48.148;-1.656;2023-02-28T21:59:23;18.40;70.60
26964;DHT22;14521;48.148;-1.656;2023-02-28T22:02:45;18.40;71.00
26964;DHT22;14521;48.148;-1.656;2023-02-28T22:09:35;18.40;70.80
26964;DHT22;14521;48.148;-1.656;2023-02-28T22:12:57;18.40;70.00
26964;DHT22;14521;48.148;-1.656;2023-02-28T22:16:25;18.30;70.20
26964;DHT22;14521;48.148;-1.656;2023-02-28T22:19:48;18.30;70.50
26964;DHT22;14521;48.148;-1.656;2023-02-28T22:23:10;18.30;70.50
26964;DHT22;14521;48.148;-1.656;2023-02-28T22:26:32;18.30;70.20
26964;DHT22;14521;48.148;-1.656;2023-02-28T22:29:55;18.30;70.00
26964;DHT22;14521;48.148;-1.656;2023-02-28T22:33:17;18.30;70.00
26964;DHT22;14521;48.148;-1.656;2023-02-28T22:36:41;18.30;69.90
26964;DHT22;14521;48.148;-1.656;2023-02-28T22:40:04;18.30;69.70
26964;DHT22;14521;48.148;-1.656;2023-02-28T22:43:27;18.30;69.70
26964;DHT22;14521;48.148;-1.656;2023-02-28T22:46:53;18.30;69.60
26964;DHT22;14521;48.148;-1.656;2023-02-28T22:50:15;18.30;69.90
26964;DHT22;14521;48.148;-1.656;2023-02-28T22:53:38;18.20;68.40
26964;DHT22;14521;48.148;-1.656;2023-02-28T22:57:00;18.20;69.30
26964;DHT22;14521;48.148;-1.656;2023-02-28T23:00:23;18.20;69.70
26964;DHT22;14521;48.148;-1.656;2023-02-28T23:03:45;18.20;69.80
26964;DHT22;14521;48.148;-1.656;2023-02-28T23:07:08;18.20;68.50
26964;DHT22;14521;48.148;-1.656;2023-02-28T23:10:30;18.20;67.40
26964;DHT22;14521;48.148;-1.656;2023-02-28T23:13:53;18.20;68.20
26964;DHT22;14521;48.148;-1.656;2023-02-28T23:17:21;18.20;67.60
26964;DHT22;14521;48.148;-1.656;2023-02-28T23:20:44;18.20;67.50
26964;DHT22;14521;48.148;-1.656;2023-02-28T23:24:08;18.10;68.70
26964;DHT22;14521;48.148;-1.656;2023-02-28T23:27:33;18.20;68.40
26964;DHT22;14521;48.148;-1.656;2023-02-28T23:31:00;18.20;68.90
26964;DHT22;14521;48.148;-1.656;2023-02-28T23:34:25;18.20;69.10